Time;durP1;ratioP1;P1;durP2;ratioP2;P2;SDS_P1;SDS_P2;PMS_P1;PMS_P2;Temp;Humidity;BMP_temperature;BMP_pressure;BME280_temperature;BME280_humidity;BME280_pressure;Samples;Min_cycle;Max_cycle;Signal;HPM_P1;HPM_P2
2022/01/22 00:00:19;;;;;;;;;;;3.90;99.90;;;;;;4976575;28;19964;-79
2022/01/22 00:02:45;;;;;;;;;;;4.00;99.90;;;;;;4976574;28;20386;-78
2022/01/22 00:05:11;;;;;;;;;;;4.20;99.90;;;;;;4976757;28;20398;-79
2022/01/22 00:07:37;;;;;;;;;;;4.30;99.90;;;;;;4976508;28;19914;-79
2022/01/22 00:10:12;;;;;;;;;;;4.10;99.90;;;;;;4976517;28;19910;-79
2022/01/22 00:15:07;;;;;;;;;;;4.20;99.90;;;;;;4976326;28;19960;-79
2022/01/22 00:17:33;;;;;;;;;;;4.30;99.90;;;;;;4976202;28;20256;-79
2022/01/22 00:19:58;;;;;;;;;;;4.40;99.90;;;;;;4976259;28;19918;-79
2022/01/22 00:22:28;;;;;;;;;;;4.40;99.90;;;;;;4976204;28;20422;-78
2022/01/22 00:24:57;;;;;;;;;;;4.30;99.90;;;;;;4975747;28;19910;-78
2022/01/22 00:27:23;;;;;;;;;;;4.30;99.90;;;;;;4976042;28;19910;-78
2022/01/22 00:29:48;;;;;;;;;;;4.40;99.90;;;;;;4976130;28;20009;-78
2022/01/22 00:32:14;;;;;;;;;;;4.40;99.90;;;;;;4976000;28;20040;-78
2022/01/22 00:34:40;;;;;;;;;;;4.50;99.90;;;;;;4975999;28;20398;-78
2022/01/22 00:37:05;;;;;;;;;;;4.60;99.90;;;;;;4975895;28;20477;-78
2022/01/22 00:39:33;;;;;;;;;;;4.30;99.90;;;;;;4975896;28;20012;-77
2022/01/22 00:41:59;;;;;;;;;;;4.30;99.90;;;;;;4958499;28;19918;-78
2022/01/22 00:44:25;;;;;;;;;;;4.40;99.90;;;;;;4975807;28;20382;-78
2022/01/22 00:46:51;;;;;;;;;;;4.30;99.90;;;;;;4958413;28;19954;-79
2022/01/22 00:49:17;;;;;;;;;;;4.10;99.90;;;;;;4958331;28;19992;-78
2022/01/22 00:51:43;;;;;;;;;;;4.10;99.90;;;;;;4975863;28;20421;-78
2022/01/22 00:54:09;;;;;;;;;;;4.10;99.90;;;;;;4975434;28;19914;-79
2022/01/22 00:56:34;;;;;;;;;;;4.40;99.90;;;;;;4975606;28;19918;-77
2022/01/22 00:59:00;;;;;;;;;;;4.60;99.90;;;;;;4975539;28;19924;-78
2022/01/22 01:01:26;;;;;;;;;;;4.60;99.90;;;;;;4975921;28;19962;-78
2022/01/22 01:03:52;;;;;;;;;;;4.40;99.90;;;;;;4958061;28;19983;-78
2022/01/22 01:06:18;;;;;;;;;;;4.70;99.90;;;;;;4975682;28;19920;-79
2022/01/22 01:08:43;;;;;;;;;;;4.30;99.90;;;;;;4975556;28;19916;-79
2022/01/22 01:11:15;;;;;;;;;;;4.20;99.90;;;;;;4975411;28;19914;-79
2022/01/22 01:13:45;;;;;;;;;;;4.10;99.90;;;;;;4975535;28;19993;-78
2022/01/22 01:16:37;;;;;;;;;;;4.30;99.90;;;;;;4975456;28;19969;-79
2022/01/22 01:32:56;;;;;;;;;;;4.50;99.90;;;;;;4975111;28;19918;-78
2022/01/22 01:35:22;;;;;;;;;;;4.60;99.90;;;;;;4974124;28;19910;-78
2022/01/22 01:37:48;;;;;;;;;;;4.70;99.90;;;;;;4975020;28;19937;-78
2022/01/22 01:40:19;;;;;;;;;;;4.60;99.90;;;;;;4975158;28;20326;-78
2022/01/22 01:42:51;;;;;;;;;;;4.40;99.90;;;;;;4975095;28;19910;-78
2022/01/22 01:45:17;;;;;;;;;;;4.20;99.90;;;;;;4957292;28;19910;-78
2022/01/22 01:47:46;;;;;;;;;;;4.10;99.90;;;;;;4974962;28;19916;-78
2022/01/22 01:50:12;;;;;;;;;;;4.10;99.90;;;;;;4973563;28;20005;-78
2022/01/22 01:52:51;;;;;;;;;;;4.20;99.90;;;;;;4974708;28;19917;-78
2022/01/22 01:55:32;;;;;;;;;;;4.00;99.90;;;;;;4974474;28;20272;-78
2022/01/22 01:57:58;;;;;;;;;;;4.10;99.90;;;;;;4974955;28;19915;-78
2022/01/22 02:00:24;;;;;;;;;;;4.20;99.90;;;;;;4974828;28;20001;-79
2022/01/22 02:02:51;;;;;;;;;;;4.20;99.90;;;;;;4974748;28;19910;-79
2022/01/22 02:05:18;;;;;;;;;;;4.50;99.90;;;;;;4974729;28;19915;-78
2022/01/22 02:07:45;;;;;;;;;;;4.60;99.90;;;;;;4973458;28;20379;-78
2022/01/22 02:10:15;;;;;;;;;;;4.30;99.90;;;;;;4957352;28;20338;-77
2022/01/22 02:23:43;;;;;;;;;;;4.50;99.90;;;;;;4974665;28;19937;-79
2022/01/22 02:26:10;;;;;;;;;;;4.50;99.90;;;;;;4956856;28;20390;-78
2022/01/22 02:28:36;;;;;;;;;;;4.50;99.90;;;;;;4974655;28;19910;-78
2022/01/22 02:31:13;;;;;;;;;;;4.80;99.90;;;;;;4974523;28;19910;-78
2022/01/22 02:34:07;;;;;;;;;;;4.70;99.90;;;;;;4972915;28;20554;-78
2022/01/22 02:36:42;;;;;;;;;;;4.80;99.90;;;;;;4974467;28;19922;-78
2022/01/22 02:41:35;;;;;;;;;;;4.40;99.90;;;;;;4974691;28;19957;-79
2022/01/22 02:44:01;;;;;;;;;;;4.40;99.90;;;;;;4973079;28;19910;-78
2022/01/22 02:46:27;;;;;;;;;;;4.50;99.90;;;;;;4957638;28;19911;-78
2022/01/22 02:48:54;;;;;;;;;;;4.50;99.90;;;;;;4976705;28;19917;-79
2022/01/22 02:51:24;;;;;;;;;;;4.40;99.90;;;;;;4977956;28;19917;-78
2022/01/22 02:53:53;;;;;;;;;;;4.50;99.90;;;;;;4977799;28;20339;-78
2022/01/22 02:56:19;;;;;;;;;;;4.80;99.90;;;;;;4977372;28;19989;-78
2022/01/22 02:58:44;;;;;;;;;;;4.80;99.90;;;;;;4977945;28;19992;-77
2022/01/22 03:01:15;;;;;;;;;;;4.70;99.90;;;;;;4977768;28;20374;-78
2022/01/22 03:03:40;;;;;;;;;;;4.70;99.90;;;;;;4977759;28;19965;-78
2022/01/22 03:06:06;;;;;;;;;;;4.80;99.90;;;;;;4977670;28;19914;-78
2022/01/22 03:08:32;;;;;;;;;;;4.60;99.90;;;;;;4977582;28;20433;-78
2022/01/22 03:11:00;;;;;;;;;;;4.60;99.90;;;;;;4960186;28;19917;-77
2022/01/22 03:16:45;;;;;;;;;;;4.50;99.90;;;;;;4977451;28;19918;-77
2022/01/22 03:19:18;;;;;;;;;;;4.50;99.90;;;;;;4975867;28;20362;-78
2022/01/22 03:21:57;;;;;;;;;;;4.50;99.90;;;;;;4959708;28;19910;-78
2022/01/22 03:27:23;;;;;;;;;;;4.70;99.90;;;;;;4977041;28;20393;-78
2022/01/22 03:29:50;;;;;;;;;;;4.90;99.90;;;;;;4977340;28;19941;-78
2022/01/22 03:32:17;;;;;;;;;;;5.00;99.90;;;;;;4977121;28;19910;-78
2022/01/22 03:37:41;;;;;;;;;;;5.00;99.90;;;;;;4944357;28;19921;-78
2022/01/22 03:40:08;;;;;;;;;;;5.00;99.90;;;;;;4977098;28;19914;-78
2022/01/22 03:42:34;;;;;;;;;;;4.90;99.90;;;;;;4975703;28;19917;-78
2022/01/22 03:45:01;;;;;;;;;;;5.10;99.90;;;;;;4959572;28;20287;-78
2022/01/22 03:47:27;;;;;;;;;;;5.20;99.90;;;;;;4977060;28;19975;-79
2022/01/22 03:49:52;;;;;;;;;;;5.00;99.90;;;;;;4976884;28;19923;-78
2022/01/22 03:52:18;;;;;;;;;;;4.90;99.90;;;;;;4976796;28;19910;-79
2022/01/22 03:54:44;;;;;;;;;;;4.80;99.90;;;;;;4976589;28;19968;-78
2022/01/22 03:57:10;;;;;;;;;;;5.10;99.90;;;;;;4976618;28;19918;-79
2022/01/22 03:59:35;;;;;;;;;;;5.30;99.90;;;;;;4975972;28;19910;-78
2022/01/22 04:04:50;;;;;;;;;;;5.00;99.90;;;;;;4976805;28;19964;-78
2022/01/22 04:10:03;;;;;;;;;;;5.00;99.90;;;;;;4976657;28;19918;-78
2022/01/22 04:12:45;;;;;;;;;;;4.90;99.90;;;;;;4976479;28;19921;-79
2022/01/22 04:15:14;;;;;;;;;;;4.70;99.90;;;;;;4974889;28;19914;-78
2022/01/22 04:25:49;;;;;;;;;;;4.80;99.90;;;;;;4975948;28;20405;-78
2022/01/22 04:28:14;;;;;;;;;;;4.90;99.90;;;;;;4976173;28;20333;-78
2022/01/22 04:30:40;;;;;;;;;;;4.80;99.90;;;;;;4976320;28;19940;-78
2022/01/22 04:33:05;;;;;;;;;;;5.00;99.90;;;;;;4976249;28;19911;-78
2022/01/22 04:35:32;;;;;;;;;;;4.90;99.90;;;;;;4976003;28;19941;-78
2022/01/22 04:37:57;;;;;;;;;;;4.80;99.90;;;;;;4974703;28;19945;-79
2022/01/22 04:40:23;;;;;;;;;;;5.00;99.90;;;;;;4975970;28;19948;-78
2022/01/22 04:42:49;;;;;;;;;;;4.70;99.90;;;;;;4976229;28;19914;-79
2022/01/22 04:45:42;;;;;;;;;;;4.80;99.90;;;;;;4976070;28;19914;-79
2022/01/22 04:48:25;;;;;;;;;;;4.90;99.90;;;;;;4976121;28;20278;-79
2022/01/22 04:56:20;;;;;;;;;;;4.70;99.90;;;;;;4975180;28;19948;-78
2022/01/22 04:58:45;;;;;;;;;;;4.70;99.90;;;;;;4975524;28;20359;-79
2022/01/22 05:01:11;;;;;;;;;;;4.60;99.90;;;;;;4976067;28;19910;-78
2022/01/22 05:03:36;;;;;;;;;;;4.70;99.90;;;;;;4975552;28;19968;-78
2022/01/22 05:06:06;;;;;;;;;;;4.60;99.90;;;;;;4958189;28;19945;-79
2022/01/22 05:08:31;;;;;;;;;;;4.60;99.90;;;;;;4975400;28;19917;-79
2022/01/22 05:10:57;;;;;;;;;;;4.80;99.90;;;;;;4975470;28;19910;-78
2022/01/22 05:13:22;;;;;;;;;;;4.90;99.90;;;;;;4957995;28;19910;-79
2022/01/22 05:15:48;;;;;;;;;;;4.80;99.90;;;;;;4957831;28;19921;-79
2022/01/22 05:18:14;;;;;;;;;;;4.80;99.90;;;;;;4975229;28;20475;-79
2022/01/22 05:20:49;;;;;;;;;;;4.90;99.90;;;;;;4975407;28;19989;-78
2022/01/22 05:23:20;;;;;;;;;;;5.00;99.90;;;;;;4975539;28;19937;-78
2022/01/22 05:25:52;;;;;;;;;;;4.90;99.90;;;;;;4957594;28;19910;-79
2022/01/22 05:32:14;;;;;;;;;;;5.20;99.90;;;;;;4947460;28;19957;-79
2022/01/22 05:37:06;;;;;;;;;;;5.30;99.90;;;;;;4942317;28;20334;-79
2022/01/22 05:39:32;;;;;;;;;;;5.00;99.90;;;;;;4973467;28;20310;-78
2022/01/22 05:41:59;;;;;;;;;;;5.10;99.90;;;;;;4973680;28;19950;-78
2022/01/22 05:44:25;;;;;;;;;;;5.20;99.90;;;;;;4974980;28;20302;-79
2022/01/22 05:46:53;;;;;;;;;;;5.10;99.90;;;;;;4973584;28;19914;-79
2022/01/22 05:49:21;;;;;;;;;;;5.20;99.90;;;;;;4973589;28;20295;-79
2022/01/22 05:51:49;;;;;;;;;;;5.20;99.90;;;;;;4957564;28;19916;-79
2022/01/22 05:54:47;;;;;;;;;;;5.40;99.90;;;;;;4974796;28;19910;-78
2022/01/22 05:59:50;;;;;;;;;;;5.10;99.90;;;;;;4974967;28;19936;-78
2022/01/22 06:02:17;;;;;;;;;;;5.00;99.90;;;;;;4974913;28;20304;-78
2022/01/22 06:04:44;;;;;;;;;;;5.10;99.90;;;;;;4974777;28;19910;-78
2022/01/22 06:07:10;;;;;;;;;;;5.00;99.90;;;;;;4973470;28;19968;-79
2022/01/22 06:09:50;;;;;;;;;;;5.10;99.90;;;;;;4973439;28;19956;-79
2022/01/22 06:12:17;;;;;;;;;;;5.20;99.90;;;;;;4974759;28;19910;-78
2022/01/22 06:14:43;;;;;;;;;;;5.40;99.90;;;;;;4974823;28;19918;-77
2022/01/22 06:17:09;;;;;;;;;;;5.20;99.90;;;;;;4974491;28;19918;-77
2022/01/22 06:19:34;;;;;;;;;;;4.90;99.90;;;;;;4973338;28;19910;-78
2022/01/22 06:22:00;;;;;;;;;;;5.20;99.90;;;;;;4958748;28;19910;-78
2022/01/22 06:24:26;;;;;;;;;;;5.10;99.90;;;;;;4978443;28;19911;-79
2022/01/22 06:26:51;;;;;;;;;;;5.10;99.90;;;;;;4978793;28;20362;-77
2022/01/22 06:29:17;;;;;;;;;;;5.10;99.90;;;;;;4978675;28;19910;-79
2022/01/22 06:31:43;;;;;;;;;;;5.20;99.90;;;;;;4977036;28;19910;-78
2022/01/22 06:34:08;;;;;;;;;;;5.00;99.90;;;;;;4978262;28;19925;-78
2022/01/22 06:36:34;;;;;;;;;;;5.00;99.90;;;;;;4960832;28;19961;-77
2022/01/22 06:39:14;;;;;;;;;;;5.00;99.90;;;;;;4978155;28;19911;-78
2022/01/22 06:41:46;;;;;;;;;;;5.20;99.90;;;;;;4976611;28;19914;-78
2022/01/22 06:44:15;;;;;;;;;;;5.10;99.90;;;;;;4978212;28;20307;-79
2022/01/22 06:46:41;;;;;;;;;;;5.20;99.90;;;;;;4977991;28;19910;-78
2022/01/22 06:49:06;;;;;;;;;;;5.30;99.90;;;;;;4978009;28;19965;-78
2022/01/22 06:51:33;;;;;;;;;;;5.20;99.90;;;;;;4960848;28;19914;-78
2022/01/22 06:54:00;;;;;;;;;;;5.10;99.90;;;;;;4977830;28;19963;-78
2022/01/22 06:56:28;;;;;;;;;;;5.20;99.90;;;;;;4977752;28;19926;-79
2022/01/22 06:58:53;;;;;;;;;;;5.10;99.90;;;;;;4960429;28;19911;-79
2022/01/22 07:01:19;;;;;;;;;;;5.30;99.90;;;;;;4977750;28;19914;-79
2022/01/22 07:03:45;;;;;;;;;;;5.30;99.90;;;;;;4960361;28;19927;-79
2022/01/22 07:06:10;;;;;;;;;;;5.20;99.90;;;;;;4960311;28;19916;-79
2022/01/22 07:08:36;;;;;;;;;;;5.30;99.90;;;;;;4977632;28;19968;-78
2022/01/22 07:11:01;;;;;;;;;;;5.20;99.90;;;;;;4977605;28;19910;-78
2022/01/22 07:13:27;;;;;;;;;;;5.10;99.90;;;;;;4977705;28;20335;-79
2022/01/22 07:15:53;;;;;;;;;;;5.00;99.90;;;;;;4977524;28;20511;-78
2022/01/22 07:18:18;;;;;;;;;;;5.00;99.90;;;;;;4977524;28;20008;-78
2022/01/22 07:20:44;;;;;;;;;;;5.00;99.90;;;;;;4977411;28;19957;-78
2022/01/22 07:23:20;;;;;;;;;;;5.30;99.90;;;;;;4959989;28;20380;-79
2022/01/22 07:25:46;;;;;;;;;;;5.30;99.90;;;;;;4977413;28;19910;-78
2022/01/22 07:28:13;;;;;;;;;;;5.10;99.90;;;;;;4975967;28;20368;-77
2022/01/22 07:30:39;;;;;;;;;;;5.20;99.90;;;;;;4975945;28;19914;-79
2022/01/22 07:33:05;;;;;;;;;;;4.90;99.90;;;;;;4977111;28;19977;-78
2022/01/22 07:35:34;;;;;;;;;;;5.10;99.90;;;;;;4977057;28;20363;-79
2022/01/22 07:38:00;;;;;;;;;;;5.20;99.90;;;;;;4975834;28;19914;-79
2022/01/22 07:40:26;;;;;;;;;;;5.40;99.90;;;;;;4977093;28;19910;-78
2022/01/22 07:42:52;;;;;;;;;;;5.30;99.90;;;;;;4977015;28;20397;-78
2022/01/22 07:45:17;;;;;;;;;;;5.40;99.90;;;;;;4976897;28;19910;-78
2022/01/22 07:47:43;;;;;;;;;;;5.50;99.90;;;;;;4959537;28;19910;-78
2022/01/22 07:50:09;;;;;;;;;;;5.40;99.90;;;;;;4959532;28;20010;-79
2022/01/22 07:52:34;;;;;;;;;;;5.30;99.90;;;;;;4975710;28;19917;-78
2022/01/22 07:55:00;;;;;;;;;;;5.20;99.90;;;;;;4976531;28;20335;-78
2022/01/22 07:57:26;;;;;;;;;;;5.50;99.90;;;;;;4976828;28;19918;-77
2022/01/22 07:59:51;;;;;;;;;;;5.40;99.90;;;;;;4976816;28;19917;-78
2022/01/22 08:02:17;;;;;;;;;;;5.20;99.90;;;;;;4976797;28;20371;-77
2022/01/22 08:04:43;;;;;;;;;;;5.30;99.90;;;;;;4976577;28;19910;-78
2022/01/22 08:07:08;;;;;;;;;;;5.40;99.90;;;;;;4976769;28;20383;-77
2022/01/22 08:09:34;;;;;;;;;;;5.50;99.90;;;;;;4959139;28;20394;-78
2022/01/22 08:12:00;;;;;;;;;;;5.50;99.90;;;;;;4976494;28;19914;-78
2022/01/22 08:14:25;;;;;;;;;;;5.50;99.90;;;;;;4975247;28;19910;-77
2022/01/22 08:16:51;;;;;;;;;;;5.60;99.90;;;;;;4975101;28;19964;-78
2022/01/22 08:19:17;;;;;;;;;;;5.70;99.90;;;;;;4976530;28;19945;-79
2022/01/22 08:21:44;;;;;;;;;;;5.60;99.90;;;;;;4975021;28;19917;-79
2022/01/22 08:24:10;;;;;;;;;;;5.60;99.90;;;;;;4976287;28;19921;-78
2022/01/22 08:26:41;;;;;;;;;;;5.60;99.90;;;;;;4976191;28;19933;-77
2022/01/22 08:29:06;;;;;;;;;;;5.50;99.90;;;;;;4976303;28;19910;-78
2022/01/22 08:36:46;;;;;;;;;;;5.50;99.90;;;;;;4975714;28;19921;-78
2022/01/22 08:39:12;;;;;;;;;;;5.50;99.90;;;;;;4975938;28;19910;-78
2022/01/22 08:41:41;;;;;;;;;;;5.80;99.90;;;;;;4975918;28;20004;-78
2022/01/22 08:44:07;;;;;;;;;;;6.00;99.90;;;;;;4975411;28;19910;-78
2022/01/22 08:46:34;;;;;;;;;;;5.90;99.90;;;;;;4976398;28;19933;-78
2022/01/22 08:49:00;;;;;;;;;;;6.10;99.90;;;;;;4975769;28;20302;-78
2022/01/22 08:51:26;;;;;;;;;;;6.30;99.90;;;;;;4974431;28;20383;-79
2022/01/22 08:53:52;;;;;;;;;;;6.20;99.90;;;;;;4974350;28;19937;-78
2022/01/22 08:56:18;;;;;;;;;;;6.30;99.90;;;;;;4975111;28;19980;-79
2022/01/22 08:58:44;;;;;;;;;;;6.50;99.90;;;;;;4975789;28;19918;-78
2022/01/22 09:01:10;;;;;;;;;;;6.70;99.90;;;;;;4975547;28;20410;-79
2022/01/22 09:03:36;;;;;;;;;;;6.60;99.90;;;;;;4958142;28;19914;-78
2022/01/22 09:06:03;;;;;;;;;;;6.50;99.90;;;;;;4975406;28;20390;-79
2022/01/22 09:08:29;;;;;;;;;;;6.70;99.90;;;;;;4975662;28;19911;-80
2022/01/22 09:10:55;;;;;;;;;;;6.80;99.90;;;;;;4975676;28;20410;-79
2022/01/22 09:13:21;;;;;;;;;;;6.70;99.90;;;;;;4975300;28;19910;-81
2022/01/22 09:15:48;;;;;;;;;;;6.60;99.90;;;;;;4975546;28;19950;-80
2022/01/22 09:18:13;;;;;;;;;;;6.70;99.90;;;;;;4975497;28;19918;-79
2022/01/22 09:23:05;;;;;;;;;;;7.00;99.90;;;;;;4975756;28;19917;-79
2022/01/22 09:25:31;;;;;;;;;;;6.80;99.90;;;;;;4975092;28;20434;-78
2022/01/22 09:27:57;;;;;;;;;;;6.80;99.90;;;;;;4975340;28;19996;-78
2022/01/22 09:30:23;;;;;;;;;;;6.90;99.90;;;;;;4975086;28;19911;-78
2022/01/22 09:32:49;;;;;;;;;;;6.80;99.90;;;;;;4964546;28;20363;-78
2022/01/22 09:35:14;;;;;;;;;;;7.00;99.90;;;;;;4955783;29;19910;-77
2022/01/22 09:37:40;;;;;;;;;;;7.10;99.90;;;;;;4956178;29;20267;-77
2022/01/22 09:40:06;;;;;;;;;;;7.20;99.90;;;;;;4954376;29;19981;-77
2022/01/22 09:42:31;;;;;;;;;;;7.40;99.90;;;;;;4964376;28;19961;-79
2022/01/22 09:44:57;;;;;;;;;;;7.40;99.90;;;;;;4975346;28;19910;-80
2022/01/22 09:47:23;;;;;;;;;;;7.30;99.90;;;;;;4975297;28;19910;-79
2022/01/22 09:49:48;;;;;;;;;;;7.20;99.90;;;;;;4975112;28;20322;-79
2022/01/22 09:52:14;;;;;;;;;;;7.10;99.90;;;;;;4968038;28;19993;-79
2022/01/22 09:54:40;;;;;;;;;;;7.30;99.90;;;;;;4955565;29;19933;-78
2022/01/22 09:57:06;;;;;;;;;;;7.60;99.90;;;;;;4954847;29;19922;-78
2022/01/22 09:59:32;;;;;;;;;;;7.50;99.90;;;;;;4955908;29;19915;-78
2022/01/22 10:02:18;;;;;;;;;;;7.30;99.90;;;;;;4959348;28;19918;-80
2022/01/22 10:04:45;;;;;;;;;;;7.20;99.90;;;;;;4974632;28;19993;-78
2022/01/22 10:07:18;;;;;;;;;;;7.20;99.90;;;;;;4974821;28;19917;-79
2022/01/22 10:10:02;;;;;;;;;;;7.30;99.90;;;;;;4973722;28;20424;-78
2022/01/22 10:12:29;;;;;;;;;;;7.70;99.90;;;;;;4974721;28;19910;-80
2022/01/22 10:15:04;;;;;;;;;;;7.90;99.90;;;;;;4974715;28;20436;-78
2022/01/22 10:17:39;;;;;;;;;;;8.00;99.90;;;;;;4975174;28;19924;-80
2022/01/22 10:20:26;;;;;;;;;;;8.00;99.90;;;;;;4974959;28;19961;-78
2022/01/22 10:22:58;;;;;;;;;;;8.30;99.90;;;;;;4946661;29;19915;-80
2022/01/22 10:25:27;;;;;;;;;;;8.30;99.90;;;;;;4955624;29;19914;-78
2022/01/22 10:27:56;;;;;;;;;;;8.70;99.90;;;;;;4955594;29;20387;-79
2022/01/22 10:30:22;;;;;;;;;;;8.70;99.90;;;;;;4955510;29;19910;-79
2022/01/22 10:32:53;;;;;;;;;;;8.80;99.90;;;;;;4943834;29;19917;-79
2022/01/22 10:35:23;;;;;;;;;;;8.80;99.90;;;;;;4969801;28;19977;-79
2022/01/22 10:37:56;;;;;;;;;;;8.90;99.90;;;;;;4970476;28;19937;-80
2022/01/22 10:40:32;;;;;;;;;;;9.20;99.90;;;;;;4955690;29;19911;-79
2022/01/22 10:43:12;;;;;;;;;;;9.00;99.90;;;;;;4965973;28;19993;-79
2022/01/22 10:45:42;;;;;;;;;;;8.80;99.90;;;;;;4974767;28;20052;-79
2022/01/22 10:48:14;;;;;;;;;;;9.00;99.90;;;;;;4974556;28;20432;-80
2022/01/22 10:50:40;;;;;;;;;;;8.70;99.90;;;;;;4974641;28;19929;-79
2022/01/22 10:53:06;;;;;;;;;;;8.90;99.90;;;;;;4957238;28;19910;-79
2022/01/22 10:55:31;;;;;;;;;;;8.50;99.90;;;;;;4974326;28;19973;-79
2022/01/22 10:58:04;;;;;;;;;;;8.80;99.90;;;;;;4974453;28;20061;-78
2022/01/22 11:00:30;;;;;;;;;;;9.00;99.90;;;;;;4974431;28;19921;-79
2022/01/22 11:02:56;;;;;;;;;;;9.20;99.90;;;;;;4964305;28;19911;-79
2022/01/22 11:05:34;;;;;;;;;;;9.20;99.90;;;;;;4954273;29;20191;-79
2022/01/22 11:08:09;;;;;;;;;;;9.30;99.90;;;;;;4956669;28;20351;-78
2022/01/22 11:10:35;;;;;;;;;;;9.30;99.90;;;;;;4958424;29;19917;-79
2022/01/22 11:13:00;;;;;;;;;;;9.30;99.90;;;;;;4968578;28;19988;-78
2022/01/22 11:15:27;;;;;;;;;;;9.00;99.90;;;;;;4978166;28;19910;-78
2022/01/22 11:17:53;;;;;;;;;;;9.00;99.90;;;;;;4977756;28;20071;-79
2022/01/22 11:20:19;;;;;;;;;;;9.20;99.90;;;;;;4977671;28;19910;-82
2022/01/22 11:22:45;;;;;;;;;;;9.30;99.90;;;;;;4976145;28;19964;-80
2022/01/22 11:25:11;;;;;;;;;;;9.50;99.90;;;;;;4992283;28;19910;-78
2022/01/22 11:27:37;;;;;;;;;;;9.50;99.90;;;;;;4977361;28;20263;-78
2022/01/22 11:30:07;;;;;;;;;;;9.40;99.90;;;;;;4977869;28;19910;-80
2022/01/22 11:32:40;;;;;;;;;;;9.50;99.90;;;;;;4977078;28;19973;-78
2022/01/22 11:35:07;;;;;;;;;;;9.60;99.90;;;;;;4977435;28;19910;-80
2022/01/22 11:37:38;;;;;;;;;;;9.70;99.90;;;;;;4976844;28;19937;-79
2022/01/22 11:40:14;;;;;;;;;;;9.70;99.90;;;;;;4977466;28;19910;-78
2022/01/22 11:42:55;;;;;;;;;;;9.70;99.90;;;;;;4959481;28;19914;-79
2022/01/22 11:45:29;;;;;;;;;;;9.70;99.90;;;;;;4974522;28;19910;-79
2022/01/22 11:48:27;;;;;;;;;;;9.90;99.90;;;;;;4977216;28;19956;-78
2022/01/22 11:50:54;;;;;;;;;;;9.80;99.90;;;;;;4923681;28;19911;-78
2022/01/22 11:53:21;;;;;;;;;;;9.70;99.90;;;;;;4976799;28;20005;-78
2022/01/22 11:56:05;;;;;;;;;;;9.90;99.90;;;;;;4976463;28;19966;-79
2022/01/22 11:58:31;;;;;;;;;;;9.90;99.90;;;;;;4957323;28;20008;-78
2022/01/22 12:00:57;;;;;;;;;;;10.10;99.90;;;;;;4975234;28;19998;-78
2022/01/22 12:03:22;;;;;;;;;;;10.20;99.90;;;;;;4975674;28;20366;-78
2022/01/22 12:05:54;;;;;;;;;;;10.10;99.90;;;;;;4976006;28;20452;-78
2022/01/22 12:08:20;;;;;;;;;;;10.00;99.90;;;;;;4976022;28;20145;-78
2022/01/22 12:16:38;;;;;;;;;;;9.90;99.90;;;;;;4976142;28;19921;-78
2022/01/22 12:19:08;;;;;;;;;;;10.00;99.90;;;;;;4975625;28;19918;-78
2022/01/22 12:21:36;;;;;;;;;;;10.10;99.90;;;;;;4976808;28;20001;-78
2022/01/22 12:24:03;;;;;;;;;;;10.10;99.90;;;;;;4976450;28;19910;-79
2022/01/22 12:26:39;;;;;;;;;;;10.30;99.90;;;;;;4976378;28;19916;-78
2022/01/22 12:29:23;;;;;;;;;;;10.30;99.90;;;;;;4976248;28;19910;-78
2022/01/22 12:32:27;;;;;;;;;;;10.30;99.90;;;;;;4976200;28;19910;-78
2022/01/22 12:34:57;;;;;;;;;;;10.20;99.90;;;;;;4879095;29;19912;-78
2022/01/22 12:37:23;;;;;;;;;;;10.10;99.90;;;;;;4960572;28;20366;-78
2022/01/22 12:39:52;;;;;;;;;;;10.10;99.90;;;;;;4976018;28;19911;-78
2022/01/22 12:42:31;;;;;;;;;;;10.10;99.90;;;;;;4975893;28;19910;-78
2022/01/22 12:44:58;;;;;;;;;;;10.20;99.90;;;;;;4976178;28;19918;-78
2022/01/22 12:47:25;;;;;;;;;;;10.00;99.90;;;;;;4975890;28;19910;-78
2022/01/22 12:50:17;;;;;;;;;;;10.10;99.90;;;;;;4975841;28;19957;-78
2022/01/22 12:52:47;;;;;;;;;;;10.10;99.90;;;;;;4970858;28;19910;-78
2022/01/22 12:55:26;;;;;;;;;;;10.10;99.90;;;;;;4975802;28;20382;-78
2022/01/22 12:57:52;;;;;;;;;;;10.10;99.90;;;;;;4975779;28;19921;-78
2022/01/22 13:00:20;;;;;;;;;;;10.10;99.90;;;;;;4975640;28;19911;-78
2022/01/22 13:02:50;;;;;;;;;;;10.30;99.90;;;;;;4975791;28;19948;-78
2022/01/22 13:05:19;;;;;;;;;;;10.40;99.90;;;;;;4975669;28;19910;-78
2022/01/22 13:07:53;;;;;;;;;;;10.30;99.90;;;;;;4975581;28;20414;-78
2022/01/22 13:10:22;;;;;;;;;;;10.40;99.90;;;;;;4975916;28;20386;-78
2022/01/22 13:12:48;;;;;;;;;;;10.30;99.90;;;;;;4975436;28;19917;-78
2022/01/22 13:15:17;;;;;;;;;;;10.30;99.90;;;;;;4975340;28;20295;-78
2022/01/22 13:17:51;;;;;;;;;;;10.40;99.90;;;;;;4975480;28;19921;-78
2022/01/22 13:20:20;;;;;;;;;;;10.40;99.90;;;;;;4975298;28;19949;-78
2022/01/22 13:22:46;;;;;;;;;;;10.30;99.90;;;;;;4975431;28;19910;-78
2022/01/22 13:25:13;;;;;;;;;;;10.20;99.90;;;;;;4975270;28;19910;-78
2022/01/22 13:27:40;;;;;;;;;;;10.10;99.90;;;;;;4975170;28;20358;-78
2022/01/22 13:30:07;;;;;;;;;;;10.20;99.90;;;;;;4975074;28;20363;-78
2022/01/22 13:48:59;;;;;;;;;;;10.30;99.90;;;;;;4975034;28;19992;-78
2022/01/22 13:51:25;;;;;;;;;;;10.40;99.90;;;;;;4975008;28;19914;-78
2022/01/22 13:53:51;;;;;;;;;;;10.30;99.90;;;;;;4974719;28;19910;-78
2022/01/22 13:56:18;;;;;;;;;;;10.20;99.90;;;;;;4974381;28;19933;-78
2022/01/22 13:58:43;;;;;;;;;;;10.30;99.90;;;;;;4974859;28;19910;-78
2022/01/22 14:01:41;;;;;;;;;;;10.20;99.90;;;;;;4974832;28;19910;-78
2022/01/22 14:04:07;;;;;;;;;;;10.20;99.90;;;;;;4974948;28;19910;-78
2022/01/22 14:06:33;;;;;;;;;;;10.00;99.90;;;;;;4974864;28;19933;-78
2022/01/22 14:09:11;;;;;;;;;;;10.00;99.90;;;;;;4973503;28;19910;-78
2022/01/22 14:11:37;;;;;;;;;;;10.20;99.90;;;;;;4974773;28;20366;-78
2022/01/22 14:14:04;;;;;;;;;;;10.20;99.90;;;;;;4974781;28;20441;-78
2022/01/22 14:16:32;;;;;;;;;;;10.10;99.90;;;;;;4974583;28;19918;-78
2022/01/22 14:18:58;;;;;;;;;;;9.80;99.90;;;;;;4974679;28;19910;-78
2022/01/22 14:21:24;;;;;;;;;;;10.00;99.90;;;;;;4974626;28;19945;-78
2022/01/22 14:23:50;;;;;;;;;;;9.80;99.90;;;;;;4974630;28;19956;-78
2022/01/22 14:26:31;;;;;;;;;;;9.90;99.90;;;;;;4974622;28;19914;-78
2022/01/22 14:28:58;;;;;;;;;;;9.90;99.90;;;;;;4974971;28;20370;-78
2022/01/22 14:31:26;;;;;;;;;;;9.80;99.90;;;;;;4973315;28;19910;-78
2022/01/22 14:33:53;;;;;;;;;;;9.80;99.90;;;;;;4974627;28;20342;-78
2022/01/22 14:36:20;;;;;;;;;;;10.00;99.90;;;;;;4974440;28;19921;-78
2022/01/22 14:46:45;;;;;;;;;;;10.10;99.90;;;;;;4978360;28;19910;-78
2022/01/22 14:49:10;;;;;;;;;;;10.20;99.90;;;;;;4978101;28;19914;-78
2022/01/22 14:51:36;;;;;;;;;;;10.20;99.90;;;;;;4977984;28;20437;-78
2022/01/22 14:54:02;;;;;;;;;;;10.00;99.90;;;;;;4977866;28;19910;-78
2022/01/22 14:56:28;;;;;;;;;;;10.00;99.90;;;;;;4977854;28;20326;-78
2022/01/22 14:58:54;;;;;;;;;;;9.90;99.90;;;;;;4976633;28;19910;-78
2022/01/22 15:01:19;;;;;;;;;;;10.10;99.90;;;;;;4977876;28;20298;-78
2022/01/22 15:03:45;;;;;;;;;;;10.00;99.90;;;;;;4977960;28;19910;-78
2022/01/22 15:06:10;;;;;;;;;;;10.10;99.90;;;;;;4977731;28;19910;-78
2022/01/22 15:08:36;;;;;;;;;;;10.10;99.90;;;;;;4977735;28;20006;-78
2022/01/22 15:11:02;;;;;;;;;;;9.70;99.90;;;;;;4977689;28;19996;-78
2022/01/22 15:13:27;;;;;;;;;;;9.70;99.90;;;;;;4977781;28;20359;-78
2022/01/22 15:15:58;;;;;;;;;;;9.80;99.90;;;;;;4977666;28;19910;-78
2022/01/22 15:21:09;;;;;;;;;;;9.60;99.90;;;;;;4977749;28;19965;-78
2022/01/22 15:23:34;;;;;;;;;;;9.60;99.90;;;;;;4977591;28;19945;-78
2022/01/22 15:26:00;;;;;;;;;;;9.50;99.90;;;;;;4977457;28;20012;-78
2022/01/22 15:28:31;;;;;;;;;;;9.70;99.90;;;;;;4977344;28;19911;-78
2022/01/22 15:30:57;;;;;;;;;;;9.60;99.90;;;;;;4977786;28;19917;-78
2022/01/22 15:33:36;;;;;;;;;;;9.50;99.90;;;;;;4977276;28;20005;-78
2022/01/22 15:36:01;;;;;;;;;;;9.50;99.90;;;;;;4977256;28;19910;-78
2022/01/22 15:38:27;;;;;;;;;;;9.50;99.90;;;;;;4977211;28;19917;-78
2022/01/22 15:40:52;;;;;;;;;;;9.50;99.90;;;;;;4977611;28;20373;-78
2022/01/22 15:43:18;;;;;;;;;;;9.30;99.90;;;;;;4977114;28;19910;-78
2022/01/22 15:45:43;;;;;;;;;;;9.30;99.90;;;;;;4959670;28;19910;-78
2022/01/22 15:48:10;;;;;;;;;;;9.40;99.90;;;;;;4977046;28;19910;-78
2022/01/22 15:50:37;;;;;;;;;;;9.20;99.90;;;;;;4976995;28;19910;-78
2022/01/22 15:53:03;;;;;;;;;;;9.20;99.90;;;;;;4976884;28;19952;-78
2022/01/22 15:55:29;;;;;;;;;;;9.10;99.90;;;;;;4975562;28;19978;-78
2022/01/22 15:57:54;;;;;;;;;;;9.20;99.90;;;;;;4959368;28;19915;-78
2022/01/22 16:00:20;;;;;;;;;;;9.10;99.90;;;;;;4976795;28;20370;-78
2022/01/22 16:02:47;;;;;;;;;;;9.00;99.90;;;;;;4976756;28;20355;-78
2022/01/22 16:05:12;;;;;;;;;;;9.00;99.90;;;;;;4976684;28;19990;-78
2022/01/22 16:07:38;;;;;;;;;;;9.00;99.90;;;;;;4976613;28;19922;-78
2022/01/22 16:10:05;;;;;;;;;;;9.00;99.90;;;;;;4976887;28;20366;-78
2022/01/22 16:12:31;;;;;;;;;;;8.90;99.90;;;;;;4959109;28;20370;-78
2022/01/22 16:14:57;;;;;;;;;;;9.00;99.90;;;;;;4976516;28;19996;-78
2022/01/22 16:17:23;;;;;;;;;;;9.00;99.90;;;;;;4976369;28;20004;-78
2022/01/22 16:19:50;;;;;;;;;;;9.10;99.90;;;;;;4976617;28;19910;-78
2022/01/22 16:22:16;;;;;;;;;;;8.90;99.90;;;;;;4976354;28;19977;-78